Emerald — 9HA2135 — position and weather

sailwx.info

Track history (hours):
 
Tides and Currents Weather Stations Pressure Air Temp Water Temp Dewpoint Dewpoint Depression Visibility Wind Speed Wind Dir Waves Ship Positions

Emerald

Last reported at 2017-Nov-23 15:06 UTC. Time now 2017-Nov-24 13:11 UTC.
Position N 35°50' E 014°32'.

Length 182 m; draft 11.5 m.

Type: Ship (hazmat cat A). MMSI: 247988247.

Date/timePositionNaut miles runAvg speedWind from/ knotsBaromVisibWave heightAir tempDewpointWater temp
2017-Nov-23 15:06N 35°50' E 014°32'0 0.1
2017-Nov-23 14:38N 35°50' E 014°32'0 0.7
2017-Nov-23 14:29N 35°49' E 014°32'2 3.8
2017-Nov-23 14:00N 35°48' E 014°34'1 2.8
2017-Nov-23 13:30N 35°48' E 014°36'3 6.7
2017-Nov-23 13:00N 35°48' E 014°40'610.6
2017-Nov-23 12:28N 35°48' E 014°47'2 3.5
2017-Nov-23 11:54N 35°48' E 014°49'0 0.0
2017-Nov-23 11:30N 35°48' E 014°49'0 0.0
2017-Nov-23 11:00N 35°48' E 014°49'0 0.0
2017-Nov-23 10:30N 35°48' E 014°49'0 0.0
2017-Nov-23 10:00N 35°48' E 014°49'0 0.0
2017-Nov-23 09:30N 35°48' E 014°49'0 0.0
2017-Nov-23 08:42N 35°48' E 014°49'0 0.0
2017-Nov-23 08:30N 35°48' E 014°49'0 0.0
2017-Nov-23 07:57N 35°48' E 014°49'0 0.0
2017-Nov-23 07:15N 35°48' E 014°49'0 0.0
2017-Nov-23 06:57N 35°48' E 014°49'0 0.0
2017-Nov-23 06:06N 35°48' E 014°49'0 0.0
2017-Nov-23 04:36N 35°48' E 014°49'0 0.1
2017-Nov-23 04:30N 35°48' E 014°49'0 0.0
2017-Nov-23 03:33N 35°48' E 014°49'0 0.0
2017-Nov-23 03:30N 35°48' E 014°49'0 0.0
2017-Nov-23 03:00N 35°48' E 014°49'0 0.0
2017-Nov-23 02:15N 35°48' E 014°49'0 0.0
2017-Nov-23 01:54N 35°48' E 014°49'0 0.0
2017-Nov-23 01:27N 35°48' E 014°49'0 0.0
2017-Nov-23 00:51N 35°48' E 014°49'0 0.1
2017-Nov-23 00:30N 35°48' E 014°49'0 0.0
2017-Nov-23 00:00N 35°48' E 014°49'0 0.0
2017-Nov-22 23:30N 35°48' E 014°49'0 0.0
2017-Nov-22 23:00N 35°48' E 014°49'0 0.0
2017-Nov-22 22:27N 35°48' E 014°49'0 0.0
2017-Nov-22 21:51N 35°48' E 014°49'0 0.0
2017-Nov-22 21:30N 35°48' E 014°49'0 0.0
2017-Nov-22 20:57N 35°48' E 014°49'0 0.0
2017-Nov-22 20:24N 35°48' E 014°50'0 0.0
2017-Nov-22 19:57N 35°48' E 014°50'0 0.0
2017-Nov-22 19:18N 35°48' E 014°50'  
2017-Nov-19 12:55N 35°49' E 014°33'2 3.7
2017-Nov-19 12:30N 35°48' E 014°34'5 9.7
2017-Nov-19 12:00N 35°48' E 014°40'612.4
2017-Nov-19 11:30N 35°49' E 014°48'  
Track history (hours):
 
Tides and Currents Weather Stations Pressure Air Temp Water Temp Dewpoint Dewpoint Depression Visibility Wind Speed Wind Dir Waves Ship Positions

Emerald

Last reported at 2017-Nov-23 15:06 UTC. Time now 2017-Nov-24 13:11 UTC.
Position N 35°50' E 014°32'.

Length 182 m; draft 11.5 m.

Type: Ship (hazmat cat A). MMSI: 247988247.

Date/timePositionNaut miles runAvg speedWind from/ knotsBaromVisibWave heightAir tempDewpointWater temp
2017-Nov-23 15:06N 35°50' E 014°32'0 0.1
2017-Nov-23 14:38N 35°50' E 014°32'0 0.7
2017-Nov-23 14:29N 35°49' E 014°32'2 3.8
2017-Nov-23 14:00N 35°48' E 014°34'1 2.8
2017-Nov-23 13:30N 35°48' E 014°36'3 6.7
2017-Nov-23 13:00N 35°48' E 014°40'610.6
2017-Nov-23 12:28N 35°48' E 014°47'2 3.5
2017-Nov-23 11:54N 35°48' E 014°49'0 0.0
2017-Nov-23 11:30N 35°48' E 014°49'0 0.0
2017-Nov-23 11:00N 35°48' E 014°49'0 0.0
2017-Nov-23 10:30N 35°48' E 014°49'0 0.0
2017-Nov-23 10:00N 35°48' E 014°49'0 0.0
2017-Nov-23 09:30N 35°48' E 014°49'0 0.0
2017-Nov-23 08:42N 35°48' E 014°49'0 0.0
2017-Nov-23 08:30N 35°48' E 014°49'0 0.0
2017-Nov-23 07:57N 35°48' E 014°49'0 0.0
2017-Nov-23 07:15N 35°48' E 014°49'0 0.0
2017-Nov-23 06:57N 35°48' E 014°49'0 0.0
2017-Nov-23 06:06N 35°48' E 014°49'0 0.0
2017-Nov-23 04:36N 35°48' E 014°49'0 0.1
2017-Nov-23 04:30N 35°48' E 014°49'0 0.0
2017-Nov-23 03:33N 35°48' E 014°49'0 0.0
2017-Nov-23 03:30N 35°48' E 014°49'0 0.0
2017-Nov-23 03:00N 35°48' E 014°49'0 0.0
2017-Nov-23 02:15N 35°48' E 014°49'0 0.0
2017-Nov-23 01:54N 35°48' E 014°49'0 0.0
2017-Nov-23 01:27N 35°48' E 014°49'0 0.0
2017-Nov-23 00:51N 35°48' E 014°49'0 0.1
2017-Nov-23 00:30N 35°48' E 014°49'0 0.0
2017-Nov-23 00:00N 35°48' E 014°49'0 0.0
2017-Nov-22 23:30N 35°48' E 014°49'0 0.0
2017-Nov-22 23:00N 35°48' E 014°49'0 0.0
2017-Nov-22 22:27N 35°48' E 014°49'0 0.0
2017-Nov-22 21:51N 35°48' E 014°49'0 0.0
2017-Nov-22 21:30N 35°48' E 014°49'0 0.0
2017-Nov-22 20:57N 35°48' E 014°49'0 0.0
2017-Nov-22 20:24N 35°48' E 014°50'0 0.0
2017-Nov-22 19:57N 35°48' E 014°50'0 0.0
2017-Nov-22 19:18N 35°48' E 014°50'  
2017-Nov-19 12:55N 35°49' E 014°33'2 3.7
2017-Nov-19 12:30N 35°48' E 014°34'5 9.7
2017-Nov-19 12:00N 35°48' E 014°40'612.4
2017-Nov-19 11:30N 35°49' E 014°48'  

Dump ship's entire track history